Flight Track Log - Related Links

Times and Time Zones

All times are in EDT time to prevent confusion due to time zone crossing. See the UAL4457 flight status page for this flight to view local times or setup timezone preferences in your user account.

Time Position Orientation Groundspeed Altitude Reporting Facility
EDT Latitude Longitude Course Direction KTS MPH feet Rate Location/Type
Mon 04:33:40 PM 29.9783 -95.2958 35° Northeast 163 188 700  Level Houston Center
Mon 04:34:23 PM 30.0069 -95.2658 42° Northeast 221 254 2,200 1,931 Climbing Houston Center
Mon 04:35:07 PM 30.0542 -95.2550 11° North 245 282 3,500 1,019 Climbing Houston Center
Mon 04:36:00 PM 30.2632 -95.1049 32° Northeast  Level FlightAware Approximate
Mon 04:36:09 PM 30.1208 -95.2231 23° Northeast 260 299 4,000  Level Houston Center
Mon 04:37:00 PM 30.3594 -95.0325 35° Northeast  Level FlightAware Approximate
Mon 04:37:11 PM 30.1839 -95.1753 33° Northeast 270 311 6,200  Level Houston Center
Mon 04:38:00 PM 30.4495 -94.9505 41° Northeast  Level FlightAware Approximate
Mon 04:38:13 PM 30.2494 -95.1258 33° Northeast 278 320 9,000  Level Houston Center
Mon 04:39:00 PM 30.5469 -94.8858 35° Northeast  Level FlightAware Approximate
Mon 04:39:15 PM 30.3203 -95.0719 33° Northeast 304 350 10,400  Level Houston Center
Mon 04:40:17 PM 30.4008 -95.0092 34° Northeast 346 398 12,300 1,935 Climbing Houston Center
Mon 04:41:19 PM 30.4947 -94.9361 34° Northeast 354 407 14,400 1,742 Climbing Houston Center
Mon 04:42:21 PM 30.5822 -94.8697 33° Northeast 371 427 15,900 1,488 Climbing Houston Center
Mon 04:43:24 PM 30.6717 -94.8008 34° Northeast 382 440 17,500 1,584 Climbing Houston Center
Mon 04:44:26 PM 30.7789 -94.7189 33° Northeast 384 442 19,200 1,597 Climbing Houston Center
Mon 04:45:28 PM 30.8697 -94.6486 34° Northeast 392 451 20,800 1,485 Climbing Houston Center
Mon 04:46:07 PM 30.9192 -94.6094 34° Northeast 376 433 21,700 1,515 Climbing Fort Worth Center
Mon 04:47:07 PM 31.0117 -94.5389 33° Northeast 369 425 23,300 1,550 Climbing Fort Worth Center
Mon 04:48:07 PM 31.1017 -94.4658 35° Northeast 374 430 24,800 1,450 Climbing Fort Worth Center
Mon 04:49:07 PM 31.2003 -94.3922 33° Northeast 381 438 26,200 1,300 Climbing Fort Worth Center
Mon 04:50:07 PM 31.2861 -94.3239 34° Northeast 391 450 27,400 1,200 Climbing Fort Worth Center
Mon 04:51:07 PM 31.3783 -94.2525 33° Northeast 396 456 28,600 1,200 Climbing Fort Worth Center
Mon 04:52:07 PM 31.4706 -94.1814 33° Northeast 396 456 29,800 1,100 Climbing Fort Worth Center
Mon 04:53:07 PM 31.5647 -94.1072 34° Northeast 401 461 30,800 1,000 Climbing Fort Worth Center
Mon 04:54:07 PM 31.6689 -94.0281 33° Northeast 401 461 31,800 1,000 Climbing Fort Worth Center
Mon 04:55:07 PM 31.7672 -93.9511 34° Northeast 413 475 32,800 1,000 Climbing Fort Worth Center
Mon 04:56:07 PM 31.8650 -93.8714 35° Northeast 413 475 33,800 900 Climbing Fort Worth Center
Mon 04:57:07 PM 31.9547 -93.7969 35° Northeast 424 488 34,600 600 Climbing Fort Worth Center
Mon 04:58:07 PM 32.0650 -93.7117 33° Northeast 429 494 35,000 200 Climbing Fort Worth Center
Mon 04:59:07 PM 32.1711 -93.6314 33° Northeast 435 501 35,000  Level Fort Worth Center
Mon 05:00:07 PM 32.2750 -93.5386 37° Northeast 451 519 35,000  Level Fort Worth Center
Mon 05:01:07 PM 32.3808 -93.4553 34° Northeast 463 533 35,000  Level Fort Worth Center
Mon 05:02:07 PM 32.4867 -93.3694 34° Northeast 463 533 35,000  Level Fort Worth Center
Mon 05:03:07 PM 32.5944 -93.2833 34° Northeast 463 533 35,000  Level Fort Worth Center
Mon 05:04:07 PM 32.6981 -93.1972 35° Northeast 458 527 35,000  Level Fort Worth Center
Mon 05:05:07 PM 32.8036 -93.1106 35° Northeast 458 527 35,000  Level Fort Worth Center
Mon 05:06:07 PM 32.8992 -93.0342 34° Northeast 463 533 35,000  Level Fort Worth Center
Mon 05:07:07 PM 33.0047 -92.9500 34° Northeast 457 526 35,000  Level Fort Worth Center
Mon 05:09:10 PM 33.2164 -92.7783 34° Northeast 462 532 35,000  Level Memphis Center
Mon 05:10:10 PM 33.3081 -92.6714 44° Northeast 462 532 35,000  Level Memphis Center
Mon 05:11:10 PM 33.3897 -92.5467 52° Northeast 459 528 35,000  Level Memphis Center
Mon 05:12:10 PM 33.4711 -92.4217 52° Northeast 471 542 35,000  Level Memphis Center
Mon 05:13:10 PM 33.5544 -92.2964 51° Northeast 477 549 35,000  Level Memphis Center
Mon 05:14:10 PM 33.6378 -92.1686 52° Northeast 477 549 35,000  Level Memphis Center
Mon 05:15:10 PM 33.7189 -92.0431 52° Northeast 484 557 35,000  Level Memphis Center
Mon 05:16:10 PM 33.8042 -91.9147 51° Northeast 484 557 35,000  Level Memphis Center
Mon 05:17:10 PM 33.8869 -91.7861 52° Northeast 484 557 35,000  Level Memphis Center
Mon 05:18:10 PM 33.9742 -91.6397 54° Northeast 484 557 35,000  Level Memphis Center
Mon 05:19:10 PM 34.0547 -91.5156 52° Northeast 484 557 35,000  Level Memphis Center
Mon 05:20:10 PM 34.1286 -91.4011 52° Northeast 479 551 35,000  Level Memphis Center
Mon 05:21:10 PM 34.2133 -91.2714 52° Northeast 479 551 35,000  Level Memphis Center
Mon 05:22:10 PM 34.2933 -91.1467 52° Northeast 479 551 35,000  Level Memphis Center
Mon 05:23:10 PM 34.3756 -91.0164 53° Northeast 479 551 35,000  Level Memphis Center
Mon 05:24:10 PM 34.4469 -90.9011 53° Northeast 479 551 35,000  Level Memphis Center
Mon 05:25:10 PM 34.5331 -90.7581 54° Northeast 484 557 35,000  Level Memphis Center
Mon 05:26:10 PM 34.6211 -90.6194 52° Northeast 477 549 35,000  Level Memphis Center
Mon 05:27:10 PM 34.7028 -90.4886 53° Northeast 484 557 35,000  Level Memphis Center
Mon 05:28:10 PM 34.7819 -90.3597 53° Northeast 484 557 35,000  Level Memphis Center
Mon 05:29:10 PM 34.8611 -90.2331 53° Northeast 479 551 35,000  Level Memphis Center
Mon 05:30:10 PM 34.9444 -90.1011 52° Northeast 479 551 35,000  Level Memphis Center
Mon 05:31:10 PM 35.0214 -89.9692 55° Northeast 479 551 35,000  Level Memphis Center
Mon 05:32:10 PM 35.0772 -89.8292 64° Northeast 487 560 35,000  Level Memphis Center
Mon 05:33:10 PM 35.1453 -89.6867 60° Northeast 487 560 35,000  Level Memphis Center
Mon 05:34:10 PM 35.2153 -89.5464 59° Northeast 487 560 35,000  Level Memphis Center
Mon 05:35:10 PM 35.2872 -89.4006 59° Northeast 487 560 35,000  Level Memphis Center
Mon 05:36:10 PM 35.3633 -89.2494 58° Northeast 487 560 35,000  Level Memphis Center
Mon 05:37:10 PM 35.4350 -89.1058 58° Northeast 487 560 35,000  Level Memphis Center
Mon 05:38:10 PM 35.5042 -88.9619 59° Northeast 487 560 35,000  Level Memphis Center
Mon 05:39:10 PM 35.5756 -88.8178 59° Northeast 487 560 35,000  Level Memphis Center
Mon 05:40:10 PM 35.6425 -88.6761 60° Northeast 492 566 35,000  Level Memphis Center
Mon 05:41:10 PM 35.7133 -88.5314 59° Northeast 492 566 35,000  Level Memphis Center
Mon 05:42:10 PM 35.7864 -88.3892 58° Northeast 492 566 35,000  Level Memphis Center
Mon 05:43:10 PM 35.8569 -88.2439 59° Northeast 487 560 35,000  Level Memphis Center
Mon 05:44:10 PM 35.9194 -88.1219 58° Northeast 487 560 35,000  Level Memphis Center
Mon 05:45:10 PM 35.9878 -87.9789 59° Northeast 482 555 35,000  Level Memphis Center
Mon 05:46:10 PM 36.0578 -87.8306 60° Northeast 482 555 35,000  Level Memphis Center
Mon 05:47:10 PM 36.1278 -87.6897 58° Northeast 477 549 35,000  Level Memphis Center
Mon 05:48:10 PM 36.2014 -87.5303 60° Northeast 482 555 35,000  Level Memphis Center
Mon 05:49:10 PM 36.2689 -87.3814 61° Northeast 482 555 35,000  Level Memphis Center
Mon 05:50:10 PM 36.3383 -87.2397 59° Northeast 482 555 35,000  Level Memphis Center
Mon 05:51:10 PM 36.4075 -87.0950 59° Northeast 482 555 35,000  Level Memphis Center
Mon 05:52:10 PM 36.4764 -86.9478 60° Northeast 482 555 35,000 -350 Level Memphis Center
Mon 05:53:10 PM 36.5353 -86.8189 60° Northeast 477 549 34,300 -850 Descending Memphis Center
Mon 05:54:10 PM 36.6019 -86.6736 60° Northeast 477 549 33,300 -950 Descending Memphis Center
Mon 05:55:10 PM 36.6667 -86.5336 60° Northeast 477 549 32,400 -900 Descending Memphis Center
Mon 05:56:10 PM 36.7308 -86.3933 60° Northeast 477 549 31,500 -950 Descending Memphis Center
Mon 05:57:10 PM 36.7969 -86.2478 60° Northeast 477 549 30,500 -971 Descending Memphis Center
Mon 05:59:34 PM 36.9506 -85.9100 60° Northeast 472 543 28,200 -932 Descending Indianapolis Center
Mon 06:00:36 PM 37.0164 -85.7656 60° Northeast 474 545 27,300 -968 Descending Indianapolis Center
Mon 06:01:38 PM 37.0925 -85.5950 61° Northeast 476 548 26,200 -1,161 Descending Indianapolis Center
Mon 06:02:40 PM 37.1528 -85.4628 60° Northeast 464 534 24,900 -1,403 Descending Indianapolis Center
Mon 06:03:42 PM 37.2139 -85.3247 61° Northeast 454 522 23,300 -1,742 Descending Indianapolis Center
Mon 06:04:44 PM 37.2786 -85.1953 58° Northeast 442 509 21,300 -2,390 Descending Indianapolis Center
Mon 06:05:45 PM 37.3822 -85.0817 41° Northeast 427 491 18,400 -2,634 Descending Indianapolis Center
Mon 06:06:47 PM 37.4700 -84.9917 39° Northeast 409 471 15,900 -2,226 Descending Indianapolis Center
Mon 06:07:49 PM 37.5550 -84.9042 39° Northeast 398 458 13,800 -1,935 Descending Indianapolis Center
Mon 06:08:51 PM 37.6364 -84.8197 39° Northeast 382 440 11,900 -1,500 Descending Indianapolis Center
Mon 06:09:53 PM 37.7111 -84.7497 37° Northeast 343 395 10,700 -1,355 Descending Indianapolis Center
Mon 06:10:55 PM 37.7756 -84.6894 36° Northeast 298 343 9,100 -1,659 Descending Indianapolis Center
Mon 06:11:56 PM 37.8508 -84.6222 35° Northeast 286 329 7,300 -1,659 Descending Indianapolis Center
Mon 06:12:58 PM 37.9136 -84.5672 35° Northeast 278 320 5,700 -1,355 Descending Indianapolis Center
Mon 06:14:00 PM 37.9744 -84.5144 34° Northeast 273 314 4,500 -871 Descending Indianapolis Center
Mon 06:15:02 PM 38.0322 -84.4683 32° Northeast 262 302 3,900 -677 Descending Indianapolis Center
Mon 06:16:04 PM 38.0725 -84.5217 314° West 226 260 3,100 -677 Descending Indianapolis Center
Mon 06:17:06 PM 38.0922 -84.5936 289° West 215 247 2,500 -581 Descending Indianapolis Center
Mon 06:19:00 PM 38.0333 -84.6000 310° West  Level FlightAware Approximate
Mon 06:26:00 PM 38.0368 -84.6086 310° West  Level Estimated

Login

Don't have an account? Register now (free) for customized features, flight alerts, and more!